Time;durP1;ratioP1;P1;durP2;ratioP2;P2;SDS_P1;SDS_P2;PMS_P1;PMS_P2;Temp;Humidity;BMP_temperature;BMP_pressure;BME280_temperature;BME280_humidity;BME280_pressure;Samples;Min_cycle;Max_cycle;Signal;HPM_P1;HPM_P2
2021/06/23 00:00:53;;;;;;;40.28;9.40;;;742.70;1561.60;;;;;;5023086;28;20033;-78
2021/06/23 00:03:19;;;;;;;43.42;8.65;;;742.60;1561.60;;;;;;5025619;28;20033;-75
2021/06/23 00:05:45;;;;;;;35.90;8.73;;;742.60;1561.60;;;;;;5034324;28;20025;-77
2021/06/23 00:08:11;;;;;;;35.78;9.45;;;742.60;1561.60;;;;;;5034563;28;20408;-78
2021/06/23 00:10:37;;;;;;;36.88;9.40;;;742.60;1561.60;;;;;;5034339;28;20489;-78
2021/06/23 00:13:08;;;;;;;33.63;8.02;;;742.60;1561.60;;;;;;5034650;28;20134;-77
2021/06/23 00:15:34;;;;;;;55.25;9.75;;;742.60;1561.60;;;;;;5034094;28;20060;-77
2021/06/23 00:18:01;;;;;;;40.72;10.05;;;742.50;1587.20;;;;;;5016681;28;20442;-77
2021/06/23 00:20:27;;;;;;;44.38;8.95;;;742.40;1587.20;;;;;;5034110;28;20173;-77
2021/06/23 00:22:53;;;;;;;40.45;9.52;;;742.40;1587.20;;;;;;5034281;28;20128;-78
2021/06/23 00:25:19;;;;;;;50.75;10.45;;;742.40;1561.60;;;;;;5033900;28;20099;-77
2021/06/23 00:27:45;;;;;;;44.30;9.88;;;742.40;1561.60;;;;;;5034295;28;20029;-77
2021/06/23 00:30:12;;;;;;;35.33;9.48;;;742.40;1561.60;;;;;;5034093;28;20025;-79
2021/06/23 00:32:41;;;;;;;44.05;9.80;;;742.40;1561.60;;;;;;5032716;28;20425;-79
2021/06/23 00:35:08;;;;;;;41.08;9.23;;;742.40;1561.60;;;;;;5034390;28;20470;-78
2021/06/23 00:37:34;;;;;;;38.13;8.50;;;742.50;1536.00;;;;;;5016017;28;20378;-79
2021/06/23 00:40:00;;;;;;;44.95;9.45;;;742.50;1561.60;;;;;;5034182;28;20029;-79
2021/06/23 00:42:26;;;;;;;43.03;9.20;;;742.40;1561.60;;;;;;5032470;28;20048;-79
2021/06/23 00:44:52;;;;;;;47.40;9.95;;;742.40;1561.60;;;;;;5034201;28;20029;-79
2021/06/23 00:47:18;;;;;;;35.88;9.65;;;742.40;1561.60;;;;;;5033667;28;20018;-78
2021/06/23 00:49:45;;;;;;;38.20;9.27;;;742.40;1561.60;;;;;;5033654;28;20022;-78
2021/06/23 00:52:11;;;;;;;43.95;8.98;;;742.40;1536.00;;;;;;5034163;28;20097;-78
2021/06/23 00:54:40;;;;;;;40.63;8.25;;;742.50;1536.00;;;;;;5033542;28;20549;-79
2021/06/23 00:57:06;;;;;;;37.83;9.32;;;742.50;1536.00;;;;;;5034017;28;20524;-79
2021/06/23 00:59:34;;;;;;;39.53;9.00;;;742.50;1536.00;;;;;;5015469;28;20056;-79
2021/06/23 01:02:02;;;;;;;35.08;9.50;;;742.50;1536.00;;;;;;5033166;28;20101;-79
2021/06/23 01:04:29;;;;;;;43.08;8.88;;;742.50;1536.00;;;;;;5033229;28;20096;-78
2021/06/23 01:06:55;;;;;;;33.55;8.93;;;742.50;1536.00;;;;;;5033785;28;20031;-78
2021/06/23 01:09:21;;;;;;;33.92;8.05;;;742.50;1536.00;;;;;;5033760;28;20026;-78
2021/06/23 01:12:21;;;;;;;35.05;8.55;;;742.50;1536.00;;;;;;5033641;28;20037;-78
2021/06/23 01:14:51;;;;;;;41.55;8.13;;;742.50;1536.00;;;;;;5032477;28;20029;-78
2021/06/23 01:17:19;;;;;;;36.97;9.07;;;742.50;1536.00;;;;;;5033778;28;20021;-78
2021/06/23 01:19:45;;;;;;;40.95;8.80;;;742.50;1536.00;;;;;;5033609;28;20448;-79
2021/06/23 01:22:18;;;;;;;35.55;8.35;;;742.50;1536.00;;;;;;5015918;28;20033;-79
2021/06/23 01:24:44;;;;;;;56.13;9.85;;;742.50;1536.00;;;;;;5033571;28;20405;-79
2021/06/23 01:27:11;;;;;;;47.40;9.50;;;742.50;1536.00;;;;;;5033677;28;20049;-79
2021/06/23 01:29:38;;;;;;;37.33;8.30;;;742.50;1536.00;;;;;;5032446;28;20156;-79
2021/06/23 01:32:08;;;;;;;46.28;10.05;;;742.40;1536.00;;;;;;5033422;28;20060;-78
2021/06/23 01:34:34;;;;;;;44.25;8.52;;;742.40;1536.00;;;;;;5015777;28;20021;-78
2021/06/23 01:37:00;;;;;;;39.97;8.15;;;742.40;1536.00;;;;;;5015742;28;20049;-79
2021/06/23 01:39:26;;;;;;;36.10;9.43;;;742.40;1536.00;;;;;;5033520;28;20448;-79
2021/06/23 01:41:52;;;;;;;29.73;8.25;;;742.40;1536.00;;;;;;5015776;28;20033;-80
2021/06/23 01:44:18;;;;;;;37.05;8.48;;;717.60;1510.40;;;;;;5015722;28;20512;-79
2021/06/23 01:46:43;;;;;;;28.63;9.23;;;717.60;1510.40;;;;;;5033467;28;20037;-79
2021/06/23 01:49:10;;;;;;;41.80;10.20;;;742.40;1536.00;;;;;;5033626;28;20021;-79
2021/06/23 01:51:36;;;;;;;35.90;9.48;;;742.40;1510.40;;;;;;5033441;28;20060;-79
2021/06/23 01:54:02;;;;;;;44.35;9.60;;;742.40;1510.40;;;;;;5015641;28;20064;-79
2021/06/23 01:56:31;;;;;;;44.50;10.57;;;742.40;1510.40;;;;;;5015644;28;20029;-78
2021/06/23 01:58:58;;;;;;;39.70;10.02;;;742.40;1510.40;;;;;;5034934;28;20025;-78
2021/06/23 02:01:58;;;;;;;38.15;9.30;;;742.40;1510.40;;;;;;5036261;28;20025;-79
2021/06/23 02:04:35;;;;;;;36.13;9.45;;;742.40;1510.40;;;;;;5037579;28;20385;-79
2021/06/23 02:07:40;;;;;;;42.33;8.60;;;742.40;1510.40;;;;;;5037375;28;20022;-80
2021/06/23 02:10:06;;;;;;;42.45;7.78;;;717.70;1484.80;;;;;;5017567;28;20053;-80
2021/06/23 02:12:38;;;;;;;45.25;9.43;;;717.60;1484.80;;;;;;5037238;28;20033;-81
2021/06/23 02:15:06;;;;;;;31.48;8.85;;;717.50;1484.80;;;;;;5037177;28;20022;-80
2021/06/23 02:17:32;;;;;;;41.25;8.45;;;717.50;1484.80;;;;;;5035955;28;20052;-79
2021/06/23 02:20:02;;;;;;;41.38;8.73;;;717.50;1484.80;;;;;;5035968;28;20022;-78
2021/06/23 02:22:30;;;;;;;28.95;7.50;;;717.40;1484.80;;;;;;5036739;28;20163;-79
2021/06/23 02:25:06;;;;;;;37.00;8.13;;;717.40;1484.80;;;;;;5036554;28;20545;-79
2021/06/23 02:27:32;;;;;;;40.33;7.72;;;717.40;1484.80;;;;;;5036807;28;20064;-79
2021/06/23 02:29:58;;;;;;;40.72;8.70;;;717.30;1484.80;;;;;;5035433;28;20021;-79
2021/06/23 02:32:27;;;;;;;37.97;8.23;;;717.30;1484.80;;;;;;5036782;28;20032;-79
2021/06/23 02:34:55;;;;;;;39.17;7.97;;;717.30;1484.80;;;;;;5035446;28;20024;-79
2021/06/23 02:37:22;;;;;;;34.25;7.68;;;717.30;1484.80;;;;;;5035298;28;20387;-80
2021/06/23 02:39:49;;;;;;;35.63;7.82;;;717.30;1484.80;;;;;;5035288;28;20481;-79
2021/06/23 02:42:15;;;;;;;29.33;6.80;;;717.40;1484.80;;;;;;5036365;28;20163;-80
2021/06/23 02:44:41;;;;;;;37.10;8.02;;;717.30;1459.20;;;;;;5036520;28;20078;-80
2021/06/23 02:47:08;;;;;;;29.02;6.72;;;717.30;1459.20;;;;;;5035089;28;20022;-81
2021/06/23 02:49:34;;;;;;;26.70;6.72;;;717.30;1459.20;;;;;;5036473;28;20438;-80
2021/06/23 02:52:02;;;;;;;35.70;7.05;;;717.30;1459.20;;;;;;5018656;28;20032;-80
2021/06/23 02:54:27;;;;;;;38.05;7.18;;;717.20;1459.20;;;;;;5036417;28;20037;-80
2021/06/23 02:56:54;;;;;;;28.00;7.53;;;717.20;1459.20;;;;;;5036311;28;20018;-80
2021/06/23 02:59:20;;;;;;;27.30;6.85;;;717.00;1459.20;;;;;;5036218;28;20385;-78
2021/06/23 03:01:48;;;;;;;33.70;7.03;;;717.00;1459.20;;;;;;5036047;28;20022;-78
2021/06/23 03:04:14;;;;;;;30.52;6.50;;;717.00;1459.20;;;;;;5036144;28;20021;-80
2021/06/23 03:06:40;;;;;;;25.48;6.60;;;717.00;1459.20;;;;;;5036109;28;20036;-79
2021/06/23 03:09:06;;;;;;;28.67;7.00;;;717.20;1459.20;;;;;;5036159;28;20029;-79
2021/06/23 03:11:37;;;;;;;26.13;5.70;;;717.20;1433.60;;;;;;5036104;28;20021;-79
2021/06/23 03:14:04;;;;;;;25.42;6.13;;;717.20;1433.60;;;;;;5036068;28;20030;-80
2021/06/23 03:16:31;;;;;;;22.33;6.20;;;717.20;1433.60;;;;;;5036033;28;20026;-79
2021/06/23 03:18:57;;;;;;;22.30;5.78;;;717.30;1433.60;;;;;;5036002;28;20378;-79
2021/06/23 03:21:24;;;;;;;25.83;5.55;;;717.30;1433.60;;;;;;5036321;28;20095;-79
2021/06/23 03:23:51;;;;;;;28.70;6.30;;;717.30;1433.60;;;;;;5035830;28;20044;-80
2021/06/23 03:26:18;;;;;;;31.95;6.40;;;717.30;1433.60;;;;;;5035647;28;20052;-79
2021/06/23 03:28:44;;;;;;;31.35;6.47;;;717.30;1433.60;;;;;;5035769;28;20026;-78
2021/06/23 03:31:10;;;;;;;29.38;6.18;;;717.30;1433.60;;;;;;5035597;28;20029;-79
2021/06/23 03:33:40;;;;;;;35.20;7.05;;;717.30;1433.60;;;;;;5035498;28;20025;-78
2021/06/23 03:36:07;;;;;;;24.30;6.35;;;717.20;1433.60;;;;;;5034355;28;20025;-78
2021/06/23 03:38:33;;;;;;;24.63;6.47;;;717.20;1459.20;;;;;;5035469;28;20096;-80
2021/06/23 03:40:59;;;;;;;29.58;7.22;;;717.00;1459.20;;;;;;5035496;28;20039;-80
2021/06/23 03:43:27;;;;;;;28.10;6.25;;;717.20;1459.20;;;;;;5034134;28;20129;-79
2021/06/23 03:45:53;;;;;;;31.65;6.70;;;717.20;1459.20;;;;;;5035285;28;20049;-80
2021/06/23 03:48:20;;;;;;;29.58;6.18;;;717.00;1459.20;;;;;;5034026;28;20025;-79
2021/06/23 03:50:48;;;;;;;27.52;7.32;;;717.00;1459.20;;;;;;5035306;28;20056;-80
2021/06/23 03:53:14;;;;;;;26.35;6.68;;;717.00;1459.20;;;;;;5035637;28;20040;-80
2021/06/23 03:55:40;;;;;;;34.25;7.20;;;717.00;1459.20;;;;;;5035284;28;20033;-79
2021/06/23 03:58:06;;;;;;;29.45;6.50;;;717.00;1459.20;;;;;;5035617;28;20025;-80
2021/06/23 04:00:32;;;;;;;28.67;6.68;;;717.00;1459.20;;;;;;5033271;28;20024;-80
2021/06/23 04:02:58;;;;;;;29.60;6.55;;;717.00;1459.20;;;;;;5034195;28;20041;-78
2021/06/23 04:05:25;;;;;;;30.42;6.22;;;717.00;1459.20;;;;;;5034164;28;20528;-80
2021/06/23 04:07:51;;;;;;;32.60;6.63;;;717.00;1459.20;;;;;;5034187;28;20036;-79
2021/06/23 04:10:17;;;;;;;25.38;6.22;;;717.00;1433.60;;;;;;5016364;28;20026;-81
2021/06/23 04:12:44;;;;;;;29.63;6.20;;;717.00;1433.60;;;;;;5016252;28;20382;-80
2021/06/23 04:15:12;;;;;;;22.15;6.00;;;717.20;1433.60;;;;;;5032935;28;20021;-80
2021/06/23 04:17:38;;;;;;;25.00;6.13;;;717.20;1408.00;;;;;;5016867;28;20057;-81
2021/06/23 04:20:07;;;;;;;24.98;5.00;;;717.20;1408.00;;;;;;5034886;28;20025;-80
2021/06/23 04:22:33;;;;;;;20.70;5.35;;;717.20;1408.00;;;;;;5034221;28;20033;-80
2021/06/23 04:24:59;;;;;;;18.40;4.93;;;717.20;1408.00;;;;;;5034299;28;20144;-77
2021/06/23 04:27:25;;;;;;;17.83;5.70;;;717.20;1408.00;;;;;;5016732;28;20478;-80
2021/06/23 04:29:51;;;;;;;22.13;5.72;;;717.30;1408.00;;;;;;5016774;28;20057;-80
2021/06/23 04:32:17;;;;;;;21.02;5.03;;;717.30;1382.40;;;;;;5034406;28;20096;-79
2021/06/23 04:34:43;;;;;;;29.45;5.65;;;717.40;1382.40;;;;;;5034429;28;20055;-80
2021/06/23 04:37:09;;;;;;;19.98;4.70;;;717.50;1382.40;;;;;;5016680;28;20119;-81
2021/06/23 04:39:35;;;;;;;20.33;5.15;;;717.50;1382.40;;;;;;5034531;28;20035;-80
2021/06/23 04:42:01;;;;;;;18.50;5.50;;;717.60;1382.40;;;;;;5033125;28;20017;-80
2021/06/23 04:44:27;;;;;;;18.85;5.00;;;717.60;1382.40;;;;;;5034350;28;20025;-80
2021/06/23 04:46:53;;;;;;;19.35;4.88;;;717.60;1382.40;;;;;;5016685;28;20026;-78
2021/06/23 04:49:18;;;;;;;21.02;5.57;;;742.40;1408.00;;;;;;5016522;28;20083;-79
2021/06/23 04:51:44;;;;;;;28.17;6.00;;;742.40;1408.00;;;;;;5034189;28;20097;-80
2021/06/23 04:54:11;;;;;;;24.13;5.93;;;742.40;1408.00;;;;;;5034209;28;20458;-80
2021/06/23 04:56:38;;;;;;;21.90;5.18;;;742.40;1408.00;;;;;;5034375;28;20052;-80
2021/06/23 04:59:04;;;;;;;26.77;5.32;;;742.40;1408.00;;;;;;5016483;28;20021;-80
2021/06/23 05:01:30;;;;;;;32.65;6.30;;;742.40;1408.00;;;;;;5034000;28;20021;-79
2021/06/23 05:03:56;;;;;;;34.50;5.85;;;742.40;1408.00;;;;;;5033985;28;20055;-79
2021/06/23 05:06:22;;;;;;;25.15;6.25;;;742.50;1408.00;;;;;;5016336;28;20029;-80
2021/06/23 05:08:47;;;;;;;27.30;5.78;;;742.50;1408.00;;;;;;5033975;28;20504;-80
2021/06/23 05:11:13;;;;;;;23.48;5.82;;;742.50;1408.00;;;;;;5034044;28;20026;-80
2021/06/23 05:13:40;;;;;;;30.67;6.50;;;742.50;1408.00;;;;;;5016196;28;20037;-79
2021/06/23 05:16:06;;;;;;;19.33;5.35;;;742.50;1408.00;;;;;;5016065;28;20025;-80
2021/06/23 05:18:34;;;;;;;26.00;5.28;;;742.50;1408.00;;;;;;5033813;28;20025;-81
2021/06/23 05:21:02;;;;;;;29.85;5.68;;;742.60;1408.00;;;;;;5016087;28;20100;-80
2021/06/23 05:23:28;;;;;;;23.88;6.30;;;742.50;1433.60;;;;;;5033734;28;20033;-81
2021/06/23 05:25:54;;;;;;;29.13;5.80;;;742.60;1408.00;;;;;;5033419;28;20098;-80
2021/06/23 05:28:20;;;;;;;35.60;5.50;;;742.50;1408.00;;;;;;5033843;28;20029;-80
2021/06/23 05:30:46;;;;;;;26.65;6.07;;;742.50;1433.60;;;;;;5033518;28;20029;-81
2021/06/23 05:33:12;;;;;;;32.13;5.95;;;742.50;1408.00;;;;;;5032749;28;20036;-81
2021/06/23 05:35:38;;;;;;;27.90;6.10;;;742.60;1408.00;;;;;;5015833;28;20425;-80
2021/06/23 05:38:04;;;;;;;24.35;4.80;;;742.50;1408.00;;;;;;5033422;28;20021;-81
2021/06/23 05:40:30;;;;;;;25.73;5.57;;;742.50;1408.00;;;;;;5033697;28;20026;-80
2021/06/23 05:42:56;;;;;;;26.05;5.80;;;742.50;1408.00;;;;;;5033409;28;20040;-80
2021/06/23 05:45:22;;;;;;;29.48;5.43;;;742.50;1408.00;;;;;;5032137;28;20477;-81
2021/06/23 05:47:48;;;;;;;26.27;5.60;;;742.50;1408.00;;;;;;5032436;28;20033;-81
2021/06/23 05:50:14;;;;;;;19.90;5.13;;;742.50;1382.40;;;;;;5015770;28;20017;-80
2021/06/23 05:52:40;;;;;;;23.48;5.55;;;742.50;1331.20;;;;;;5033341;28;20434;-81
2021/06/23 05:55:07;;;;;;;21.33;5.15;;;742.50;1356.80;;;;;;5032057;28;20064;-80
2021/06/23 05:57:33;;;;;;;16.27;4.80;;;742.50;1356.80;;;;;;5033183;28;20025;-80
2021/06/23 05:59:59;;;;;;;16.75;4.80;;;742.60;1356.80;;;;;;5033237;28;20076;-81
2021/06/23 06:02:25;;;;;;;21.20;5.03;;;742.60;1356.80;;;;;;5033198;28;20030;-81
2021/06/23 06:04:51;;;;;;;28.13;5.55;;;742.70;1382.40;;;;;;5033181;28;20027;-80
2021/06/23 06:07:17;;;;;;;20.20;5.40;;;742.80;1356.80;;;;;;5033166;28;20524;-81
2021/06/23 06:09:42;;;;;;;23.45;5.05;;;742.90;1356.80;;;;;;5033367;28;20030;-81
2021/06/23 06:12:09;;;;;;;20.42;5.28;;;742.90;1331.20;;;;;;5033096;28;20109;-82
2021/06/23 06:14:35;;;;;;;27.63;5.07;;;742.70;1305.60;;;;;;5031775;28;20501;-81
2021/06/23 06:17:01;;;;;;;25.85;5.45;;;743.00;1331.20;;;;;;5033048;28;20026;-81
2021/06/23 06:19:27;;;;;;;20.67;5.20;;;743.10;1331.20;;;;;;5033101;28;20051;-81
2021/06/23 06:21:54;;;;;;;26.25;5.18;;;743.10;1356.80;;;;;;5032945;28;20105;-76
2021/06/23 06:24:20;;;;;;;23.52;4.97;;;743.10;1280.00;;;;;;5015130;28;20026;-80
2021/06/23 06:26:46;;;;;;;19.92;5.38;;;743.20;1305.60;;;;;;5033206;28;20030;-83
2021/06/23 06:29:12;;;;;;;22.65;5.43;;;743.30;1305.60;;;;;;5033069;28;20478;-82
2021/06/23 06:31:38;;;;;;;21.50;5.65;;;768.00;1305.60;;;;;;5032654;28;20037;-80
2021/06/23 06:34:04;;;;;;;25.70;5.50;;;768.00;1280.00;;;;;;5032863;28;20021;-80
2021/06/23 06:36:30;;;;;;;27.45;5.68;;;768.10;1280.00;;;;;;5032920;28;20071;-80
2021/06/23 06:38:56;;;;;;;18.02;4.85;;;768.20;1254.40;;;;;;5032901;28;20092;-82
2021/06/23 06:41:22;;;;;;;26.88;5.85;;;768.30;1254.40;;;;;;5032932;28;20482;-78
2021/06/23 06:43:48;;;;;;;20.90;5.00;;;768.40;1280.00;;;;;;5032917;28;20091;-81
2021/06/23 06:46:14;;;;;;;18.92;4.82;;;768.40;1228.80;;;;;;5036014;28;20057;-81
2021/06/23 06:48:40;;;;;;;15.90;4.65;;;768.50;1228.80;;;;;;5036710;28;20378;-83
2021/06/23 06:51:06;;;;;;;21.23;4.60;;;768.70;1228.80;;;;;;5036631;28;20066;-77
2021/06/23 06:53:32;;;;;;;16.65;4.38;;;768.70;1203.20;;;;;;5036528;28;20392;-76
2021/06/23 06:55:58;;;;;;;21.13;4.78;;;768.80;1203.20;;;;;;5018685;28;20025;-75
2021/06/23 06:58:24;;;;;;;14.73;4.28;;;768.90;1177.60;;;;;;5018146;28;20376;-76
2021/06/23 07:00:50;;;;;;;17.35;4.82;;;793.60;1228.80;;;;;;5036069;28;20084;-76
2021/06/23 07:03:16;;;;;;;16.40;4.18;;;793.70;1203.20;;;;;;5035655;28;20481;-75
2021/06/23 07:05:42;;;;;;;16.58;4.20;;;793.80;1100.80;;;;;;5035659;28;20032;-76
2021/06/23 07:08:08;;;;;;;13.30;3.40;;;793.90;1075.20;;;;;;5035687;28;20036;-76
2021/06/23 07:10:34;;;;;;;18.40;3.80;;;793.90;1100.80;;;;;;5035829;28;20075;-76
2021/06/23 07:13:00;;;;;;;23.45;4.68;;;794.00;1126.40;;;;;;5035530;28;20470;-75
2021/06/23 07:15:27;;;;;;;24.70;4.40;;;794.10;1152.00;;;;;;5035437;28;20477;-76
2021/06/23 07:17:53;;;;;;;19.73;3.70;;;794.10;1152.00;;;;;;5034984;28;20545;-76
2021/06/23 07:20:19;;;;;;;20.52;4.07;;;794.10;1100.80;;;;;;5034443;28;20028;-77
2021/06/23 07:22:45;;;;;;;16.05;3.40;;;794.10;1075.20;;;;;;5035659;28;20025;-76
2021/06/23 07:25:11;;;;;;;19.25;3.65;;;794.20;972.80;;;;;;5035510;28;20049;-76
2021/06/23 07:27:38;;;;;;;17.23;3.53;;;794.20;972.80;;;;;;5035978;28;20044;-75
2021/06/23 07:30:05;;;;;;;19.42;3.35;;;794.30;998.40;;;;;;5033877;28;20470;-75
2021/06/23 07:32:50;;;;;;;12.13;3.42;;;794.10;972.80;;;;;;5031202;28;20033;-76
2021/06/23 07:38:02;;;;;;;28.02;4.38;;;794.30;1049.60;;;;;;5035680;28;20079;-76
2021/06/23 07:41:02;;;;;;;35.20;4.53;;;794.30;1024.00;;;;;;5034000;28;20065;-75
2021/06/23 07:43:20;;;;;;;26.15;3.25;;;794.30;972.80;;;;;;5030595;28;20037;-75
2021/06/23 07:45:57;;;;;;;14.00;3.15;;;794.40;947.20;;;;;;5034025;28;20025;-77
2021/06/23 07:48:27;;;;;;;9.40;2.17;;;819.20;896.00;;;;;;5034776;28;20044;-75
2021/06/23 07:51:16;;;;;;;10.35;2.85;;;819.20;870.40;;;;;;5034163;28;20584;-76
2021/06/23 08:10:11;;;;;;;12.30;2.47;;;819.40;844.80;;;;;;5034889;28;20123;-75
2021/06/23 08:12:55;;;;;;;13.70;2.67;;;819.40;819.20;;;;;;5035114;28;20029;-75
2021/06/23 08:15:32;;;;;;;11.85;2.42;;;819.50;844.80;;;;;;5023513;28;20025;-75
2021/06/23 08:17:58;;;;;;;14.40;3.05;;;819.50;844.80;;;;;;5033715;28;20036;-75
2021/06/23 08:20:25;;;;;;;8.82;2.78;;;819.60;870.40;;;;;;5034675;28;20026;-75
2021/06/23 08:22:52;;;;;;;13.65;3.30;;;819.50;896.00;;;;;;5033132;28;20059;-75
2021/06/23 08:25:18;;;;;;;10.60;2.60;;;819.60;921.60;;;;;;5033613;28;20516;-76
2021/06/23 08:27:44;;;;;;;11.35;2.63;;;819.70;921.60;;;;;;5034108;28;20022;-76
2021/06/23 08:30:11;;;;;;;10.80;2.85;;;819.70;947.20;;;;;;5032109;28;20083;-76
2021/06/23 08:32:41;;;;;;;9.32;2.72;;;819.70;870.40;;;;;;5034093;28;20056;-80
2021/06/23 08:35:08;;;;;;;8.82;2.60;;;819.90;896.00;;;;;;5015896;28;20029;-75
2021/06/23 08:37:35;;;;;;;13.15;2.47;;;819.80;870.40;;;;;;5016607;28;20076;-76
2021/06/23 08:40:01;;;;;;;12.32;2.65;;;819.80;870.40;;;;;;5032749;28;20010;-77
2021/06/23 08:42:27;;;;;;;13.32;2.75;;;819.80;870.40;;;;;;5032534;28;20085;-77
2021/06/23 08:44:53;;;;;;;9.32;2.70;;;819.80;921.60;;;;;;5032133;28;20021;-76
2021/06/23 08:47:19;;;;;;;10.75;3.00;;;819.90;921.60;;;;;;5032228;28;20479;-77
2021/06/23 08:49:47;;;;;;;11.77;2.75;;;819.90;921.60;;;;;;5032328;28;20048;-76
2021/06/23 08:52:14;;;;;;;11.70;2.72;;;819.90;921.60;;;;;;5029978;28;20075;-76
2021/06/23 08:54:41;;;;;;;12.55;2.50;;;819.90;921.60;;;;;;5031306;28;20025;-77
2021/06/23 08:57:07;;;;;;;19.38;3.20;;;819.80;947.20;;;;;;5030297;28;20250;-77
2021/06/23 08:59:34;;;;;;;7.03;2.63;;;820.00;947.20;;;;;;5032508;28;20025;-77
2021/06/23 09:02:01;;;;;;;12.07;2.70;;;819.90;921.60;;;;;;5031695;28;20028;-78
2021/06/23 09:04:27;;;;;;;13.43;2.42;;;819.90;921.60;;;;;;5014492;28;20056;-77
2021/06/23 09:06:55;;;;;;;12.07;2.88;;;819.90;947.20;;;;;;5031835;28;20111;-78
2021/06/23 09:09:35;;;;;;;9.43;2.80;;;819.90;947.20;;;;;;5014542;28;20018;-77
2021/06/23 09:12:06;;;;;;;16.70;2.78;;;820.10;921.60;;;;;;5012980;28;20093;-78
2021/06/23 09:14:34;;;;;;;14.68;3.08;;;820.10;947.20;;;;;;5029418;28;20014;-77
2021/06/23 09:17:14;;;;;;;12.13;2.75;;;820.10;947.20;;;;;;5022590;28;20026;-77
2021/06/23 09:19:49;;;;;;;12.13;2.80;;;820.00;947.20;;;;;;5030157;28;20362;-77
2021/06/23 09:22:36;;;;;;;11.18;3.05;;;844.80;947.20;;;;;;5029635;28;20021;-78
2021/06/23 09:25:24;;;;;;;12.45;3.10;;;844.80;947.20;;;;;;5027636;28;20137;-78
2021/06/23 09:27:57;;;;;;;15.40;3.55;;;844.80;947.20;;;;;;5031725;28;20010;-79
2021/06/23 09:30:39;;;;;;;12.73;3.00;;;844.80;921.60;;;;;;5031422;28;20075;-79
2021/06/23 09:33:20;;;;;;;17.23;3.30;;;844.80;947.20;;;;;;5013559;28;20116;-78
2021/06/23 09:35:47;;;;;;;20.00;3.22;;;820.10;921.60;;;;;;5030503;28;20489;-78
2021/06/23 09:38:33;;;;;;;12.90;3.28;;;844.80;972.80;;;;;;5029240;28;20025;-78
2021/06/23 09:41:00;;;;;;;15.85;4.00;;;844.80;972.80;;;;;;5029612;28;20021;-78
2021/06/23 09:43:40;;;;;;;20.00;3.53;;;844.90;947.20;;;;;;5031783;28;20034;-78
2021/06/23 09:46:49;;;;;;;13.90;3.38;;;845.00;947.20;;;;;;5028215;28;20049;-78
2021/06/23 09:49:17;;;;;;;14.73;3.13;;;845.00;921.60;;;;;;4944465;28;20045;-78
2021/06/23 09:51:47;;;;;;;15.02;3.35;;;844.90;921.60;;;;;;4959941;28;20019;-77
2021/06/23 09:54:15;;;;;;;15.52;3.45;;;844.90;921.60;;;;;;4944160;28;20027;-79
2021/06/23 09:56:45;;;;;;;15.38;3.85;;;845.00;921.60;;;;;;4970077;28;20026;-79
2021/06/23 09:59:38;;;;;;;19.60;3.78;;;845.00;947.20;;;;;;4971840;28;20058;-75
2021/06/23 10:02:19;;;;;;;13.23;4.07;;;845.00;947.20;;;;;;4954842;28;20027;-75
2021/06/23 10:04:45;;;;;;;23.83;4.80;;;845.00;972.80;;;;;;4972140;28;20038;-76
2021/06/23 10:07:11;;;;;;;19.35;3.40;;;845.00;921.60;;;;;;4955450;28;20089;-76
2021/06/23 10:09:37;;;;;;;19.05;3.70;;;845.00;921.60;;;;;;4955656;28;20093;-77
2021/06/23 10:12:08;;;;;;;18.33;3.65;;;845.00;947.20;;;;;;4972182;28;20464;-76
2021/06/23 10:14:45;;;;;;;19.60;3.97;;;845.10;972.80;;;;;;4971780;28;20066;-77
2021/06/23 10:17:12;;;;;;;17.13;3.28;;;845.20;947.20;;;;;;4955861;28;20026;-76
2021/06/23 10:19:39;;;;;;;18.15;4.03;;;845.20;972.80;;;;;;4972449;28;20046;-78
2021/06/23 10:22:06;;;;;;;15.57;3.72;;;845.20;947.20;;;;;;4975752;28;20027;-77
2021/06/23 10:24:34;;;;;;;20.85;3.55;;;845.20;947.20;;;;;;4977000;28;20186;-77
2021/06/23 10:27:04;;;;;;;21.65;3.90;;;845.30;947.20;;;;;;5017053;28;20053;-77
2021/06/23 10:29:33;;;;;;;35.40;13.38;;;845.30;947.20;;;;;;4999269;28;20018;-76
2021/06/23 10:32:00;;;;;;;32.33;7.03;;;845.30;972.80;;;;;;5015466;28;20026;-76
2021/06/23 10:34:26;;;;;;;35.58;10.70;;;845.40;972.80;;;;;;5031084;28;20028;-77
2021/06/23 10:36:54;;;;;;;20.45;4.78;;;845.40;972.80;;;;;;5016292;28;20030;-77
2021/06/23 10:39:21;;;;;;;26.50;8.30;;;845.50;947.20;;;;;;5005185;28;20026;-76
2021/06/23 10:41:50;;;;;;;22.88;4.15;;;845.50;947.20;;;;;;5036209;28;20026;-75
2021/06/23 10:44:23;;;;;;;21.92;4.70;;;845.50;947.20;;;;;;5036062;28;20045;-77
2021/06/23 10:46:54;;;;;;;18.55;5.78;;;845.50;998.40;;;;;;5036379;28;20025;-76
2021/06/23 10:49:39;;;;;;;21.13;4.18;;;845.60;947.20;;;;;;5036014;28;20100;-76
2021/06/23 10:52:20;;;;;;;29.02;5.45;;;845.60;947.20;;;;;;5018100;28;20116;-76
2021/06/23 10:55:21;;;;;;;26.40;10.38;;;845.60;972.80;;;;;;5035615;28;20033;-77
2021/06/23 10:57:48;;;;;;;21.77;5.22;;;845.60;947.20;;;;;;5016426;28;20038;-76
2021/06/23 11:00:17;;;;;;;17.15;5.70;;;845.60;972.80;;;;;;5035598;28;20114;-77
2021/06/23 11:02:48;;;;;;;21.45;3.97;;;845.70;998.40;;;;;;5034652;28;20038;-77
2021/06/23 11:05:15;;;;;;;20.00;4.90;;;845.70;947.20;;;;;;5035605;28;20061;-77
2021/06/23 11:07:50;;;;;;;12.27;4.35;;;845.70;998.40;;;;;;5035586;28;20041;-77
2021/06/23 11:10:17;;;;;;;24.90;4.93;;;845.70;947.20;;;;;;5034510;28;20057;-76
2021/06/23 11:12:43;;;;;;;23.23;5.43;;;870.40;947.20;;;;;;5035355;28;20025;-77
2021/06/23 11:15:25;;;;;;;20.73;5.07;;;870.40;998.40;;;;;;5035674;28;20025;-77
2021/06/23 11:20:26;;;;;;;24.60;4.72;;;870.40;972.80;;;;;;5127613;22;20084;-76
2021/06/23 11:22:55;;;;;;;28.65;5.97;;;870.40;972.80;;;;;;5034277;28;20061;-74
2021/06/23 11:25:26;;;;;;;16.80;4.72;;;870.40;972.80;;;;;;5016547;28;20724;-71
2021/06/23 11:28:07;;;;;;;20.23;5.00;;;870.50;972.80;;;;;;5032059;28;20018;-75
2021/06/23 11:30:34;;;;;;;15.50;3.78;;;870.60;921.60;;;;;;5031622;28;20502;-75
2021/06/23 11:33:28;;;;;;;15.93;4.38;;;870.60;921.60;;;;;;5033341;28;20032;-76
2021/06/23 11:35:55;;;;;;;16.60;4.45;;;870.70;947.20;;;;;;5028064;28;20028;-76
2021/06/23 11:38:21;;;;;;;23.17;5.05;;;870.60;947.20;;;;;;5032813;28;20428;-72
2021/06/23 11:40:48;;;;;;;25.50;4.50;;;870.60;972.80;;;;;;5033246;28;20378;-76
2021/06/23 11:43:14;;;;;;;29.38;5.10;;;870.80;947.20;;;;;;5033866;28;20064;-76
2021/06/23 11:45:40;;;;;;;17.45;4.57;;;870.80;947.20;;;;;;5033948;28;20053;-76
2021/06/23 11:48:06;;;;;;;14.65;3.28;;;870.80;947.20;;;;;;5033825;28;20025;-76
2021/06/23 11:50:32;;;;;;;20.45;4.72;;;870.80;921.60;;;;;;5033947;28;20033;-73
2021/06/23 11:52:58;;;;;;;21.70;3.95;;;870.90;921.60;;;;;;5033866;28;20013;-76
2021/06/23 11:55:24;;;;;;;20.45;4.15;;;870.90;921.60;;;;;;5033659;28;20061;-74
2021/06/23 11:57:55;;;;;;;21.67;4.18;;;870.90;921.60;;;;;;5033708;28;20523;-77
2021/06/23 12:00:22;;;;;;;19.45;4.57;;;871.00;947.20;;;;;;5033599;28;20017;-75
2021/06/23 12:02:48;;;;;;;19.83;3.83;;;871.00;947.20;;;;;;5034473;28;20164;-72
2021/06/23 12:05:14;;;;;;;19.67;4.55;;;871.00;947.20;;;;;;5033846;28;20033;-76
2021/06/23 12:07:39;;;;;;;27.30;4.13;;;871.00;947.20;;;;;;5034769;28;20022;-75
2021/06/23 12:10:07;;;;;;;26.88;4.82;;;871.00;921.60;;;;;;5035061;28;20090;-76
2021/06/23 12:12:33;;;;;;;16.98;4.13;;;871.00;947.20;;;;;;5035617;28;20463;-76
2021/06/23 12:15:00;;;;;;;22.30;4.68;;;871.00;921.60;;;;;;5034995;28;20088;-75
2021/06/23 12:17:26;;;;;;;29.02;4.45;;;871.10;921.60;;;;;;5034532;28;20029;-74
2021/06/23 12:19:53;;;;;;;18.58;4.95;;;871.10;921.60;;;;;;5034491;28;20049;-76
2021/06/23 12:22:25;;;;;;;22.92;4.43;;;871.10;921.60;;;;;;5034798;28;20143;-76
2021/06/23 12:24:52;;;;;;;22.85;5.07;;;871.20;921.60;;;;;;5034904;28;20127;-75
2021/06/23 12:27:18;;;;;;;26.02;4.47;;;871.20;896.00;;;;;;5016312;28;20026;-75
2021/06/23 12:29:44;;;;;;;23.20;4.80;;;871.30;896.00;;;;;;5034328;28;20108;-76
2021/06/23 12:32:10;;;;;;;30.00;4.70;;;871.30;896.00;;;;;;5034750;28;20049;-77
2021/06/23 12:34:36;;;;;;;22.45;4.57;;;871.30;896.00;;;;;;5033870;28;20029;-73
2021/06/23 12:37:02;;;;;;;26.13;4.53;;;896.00;896.00;;;;;;5033912;28;20029;-70
2021/06/23 12:39:27;;;;;;;20.27;4.00;;;871.30;921.60;;;;;;5027120;28;20040;-69